CYPR

Prince Rupert Airport

Prince Rupert, , Canada
METAR CYPR 211530Z AUTO 22006KT 9SM FEW018 SCT024 BKN050 06/04 A3004 RMK SLP174
Observed Flight Rules
Apr-21 @ 15:30 UTC (11 minutes ago) Visual Flight Rules
Wind Visibility Clouds
220° at 6 knots 9 miles
  • Few at 1,800' AGL
  • Scattered at 2,400' AGL
  • Broken at 5,000' AGL
Temperatures Readings
Current 6°C / 43°F
Dewpoint 4°C / 39°F
Humidity 87%
Altimeter 30.04" Hg
Pressure 1017.4 hPa
Elevation 34
METAR CYPR 211530Z AUTO 22006KT 9SM FEW018 SCT024 BKN050 06/04 A3004 RMK SLP174
Observed Flight Rules
Apr-21 @ 15:30 UTC
(11 minutes ago)
VFR
Wind Visibility
220° at 6 knots 9 miles
Clouds
  • Few at 1,800' AGL
  • Scattered at 2,400' AGL
  • Broken at 5,000' AGL
Temperature Dewpoint
6°C / 43°F 4°C / 39°F
Humidity Altimeter Pressure
87% 30.04" Hg 1017.4 hPa